Lana — WDB2809 — position and weather

sailwx.info

Track history (hours):
 
Tides and Currents Weather Stations Pressure Air Temp Water Temp Dewpoint Dewpoint Depression Visibility Wind Speed Wind Dir Waves Ship Positions

Lana

Owner: MARINE EXPRESS INCORPORATION, ALAMEDA, CA. More information available from US FCC via Universal Licensing System.

Last reported at 2018-Jul-22 03:00 UTC. Time now 2018-Jul-22 03:09 UTC.
Position N 37°43' W 122°20'.

Length 19 m.

Type: Passenger vessel. MMSI: 338108125.

Date/timePositionNaut miles runAvg speedWind from/ knotsBaromVisibWave heightAir tempDewpointWater temp
2018-Jul-22 03:00N 37°43' W 122°20'4 8.8
2018-Jul-22 02:31N 37°48' W 122°19'2 3.5
2018-Jul-22 02:00N 37°47' W 122°17'0 0.0
2018-Jul-21 22:26N 37°47' W 122°17'3 6.7
2018-Jul-21 22:00N 37°46' W 122°20'3 6.3
2018-Jul-21 21:30N 37°42' W 122°20'0 0.2
2018-Jul-21 20:33N 37°43' W 122°20'0 8.3
2018-Jul-21 20:30N 37°43' W 122°20'5 9.6
2018-Jul-21 20:00N 37°48' W 122°19'2 3.4
2018-Jul-21 19:30N 37°47' W 122°17'0 0.0
2018-Jul-21 19:00N 37°47' W 122°17'0 0.3
2018-Jul-21 18:30N 37°48' W 122°17'3 5.9
2018-Jul-21 18:00N 37°47' W 122°21'3 6.3
2018-Jul-21 17:30N 37°47' W 122°17'1 1.9
2018-Jul-21 17:00N 37°48' W 122°18'2 4.9
2018-Jul-21 16:30N 37°47' W 122°22'0 0.2
2018-Jul-21 16:00N 37°47' W 122°21'3 6.6
2018-Jul-21 15:30N 37°47' W 122°17'0 0.0
2018-Jul-21 03:11N 37°47' W 122°17'2 9.3
2018-Jul-21 03:00N 37°48' W 122°19'5 9.3
2018-Jul-21 02:30N 37°43' W 122°20'0 0.0
2018-Jul-21 02:00N 37°43' W 122°20'0 0.1
2018-Jul-21 01:30N 37°43' W 122°20'5 9.2
2018-Jul-21 01:00N 37°48' W 122°20'2 4.6
2018-Jul-21 00:30N 37°47' W 122°17'0 0.0
2018-Jul-21 00:00N 37°47' W 122°17'2 3.3
2018-Jul-20 23:30N 37°48' W 122°19'1 2.2
2018-Jul-20 23:01N 37°47' W 122°20'3 5.0
2018-Jul-20 22:30N 37°47' W 122°17'1 2.5
2018-Jul-20 22:00N 37°48' W 122°19'4 8.2
2018-Jul-20 21:30N 37°44' W 122°20'0 0.1
2018-Jul-20 21:00N 37°44' W 122°20'0 0.2
2018-Jul-20 20:30N 37°44' W 122°20'4 7.6
2018-Jul-20 20:00N 37°47' W 122°20'2 4.7
2018-Jul-20 19:30N 37°47' W 122°17'0 0.0
2018-Jul-20 19:00N 37°47' W 122°17'0 0.0
2018-Jul-20 18:30N 37°47' W 122°17'0 0.1
2018-Jul-20 18:00N 37°47' W 122°17'1 2.0
2018-Jul-20 17:30N 37°48' W 122°19'1 1.6
2018-Jul-20 17:00N 37°48' W 122°20'613.0
2018-Jul-20 16:31N 37°53' W 122°25'1 1.8
2018-Jul-20 16:00N 37°54' W 122°25'815.9
2018-Jul-20 15:30N 37°48' W 122°18'1 0.1
2018-Jul-20 05:30N 37°47' W 122°17'3 5.5
2018-Jul-20 05:01N 37°46' W 122°20'3 1.0
2018-Jul-20 02:20N 37°47' W 122°17'2 7.0
2018-Jul-20 02:01N 37°47' W 122°20'0 0.9
2018-Jul-20 01:31N 37°47' W 122°20'2 4.5
2018-Jul-20 01:00N 37°47' W 122°17'0 0.0
2018-Jul-19 15:34N 37°47' W 122°17'0 0.2
2018-Jul-19 15:30N 37°47' W 122°17'0 0.1
2018-Jul-19 15:00N 37°47' W 122°17'0 0.0
2018-Jul-19 14:30N 37°47' W 122°17'0 0.0
2018-Jul-18 03:36N 37°48' W 122°18'112.4
2018-Jul-18 03:31N 37°48' W 122°19'1 1.4
2018-Jul-18 03:01N 37°48' W 122°19'1 0.6
2018-Jul-18 01:14N 37°47' W 122°17'1 5.2
2018-Jul-18 01:00N 37°48' W 122°19'0 0.6
2018-Jul-18 00:30N 37°48' W 122°19'2 2.0
2018-Jul-17 23:45N 37°47' W 122°17'2 8.5
2018-Jul-17 23:30N 37°48' W 122°20'0 0.3
2018-Jul-17 23:00N 37°48' W 122°20'2 1.4
2018-Jul-17 21:38N 37°47' W 122°17'0 2.9
2018-Jul-17 21:31N 37°48' W 122°18'3 6.7
2018-Jul-17 21:00N 37°45' W 122°20'4 7.0
2018-Jul-17 20:30N 37°47' W 122°17'0 0.0
2018-Jul-17 20:00N 37°47' W 122°17'3 6.2
2018-Jul-17 19:29N 37°46' W 122°21'0 0.0
2018-Jul-17 19:00N 37°46' W 122°21'0 0.2
2018-Jul-17 18:29N 37°46' W 122°21'3 6.6
2018-Jul-17 18:00N 37°47' W 122°17'2 4.8
2018-Jul-17 17:30N 37°48' W 122°20'1 2.6
2018-Jul-17 17:00N 37°46' W 122°21'0 0.2
2018-Jul-17 16:30N 37°46' W 122°21'0 0.1
2018-Jul-17 16:00N 37°46' W 122°21'0 0.0
2018-Jul-17 15:30N 37°46' W 122°21'0 0.0
2018-Jul-17 15:00N 37°46' W 122°21'2 3.3
2018-Jul-17 14:30N 37°47' W 122°23'5 9.4
2018-Jul-17 14:00N 37°47' W 122°17'0 0.0
2018-Jul-17 13:30N 37°47' W 122°17'0 0.0
2018-Jul-17 04:35N 37°47' W 122°17'0 2.5
2018-Jul-17 04:30N 37°48' W 122°18'4 8.1
2018-Jul-17 04:00N 37°47' W 122°23'0 0.9
2018-Jul-17 03:30N 37°47' W 122°23'0 0.0
2018-Jul-17 03:00N 37°47' W 122°23'0 0.1
2018-Jul-17 02:30N 37°47' W 122°23'4 8.0
2018-Jul-17 02:00N 37°48' W 122°18'3 5.3
2018-Jul-17 01:30N 37°46' W 122°21'2 3.6
2018-Jul-17 01:00N 37°47' W 122°23'4 7.4
2018-Jul-17 00:30N 37°48' W 122°19'1 0.3
2018-Jul-16 21:27N 37°47' W 122°17'0 0.0
2018-Jul-16 21:00N 37°47' W 122°17'3 6.4
2018-Jul-16 20:30N 37°46' W 122°21'0 0.3
2018-Jul-16 20:00N 37°46' W 122°21'0 0.3
2018-Jul-16 19:30N 37°46' W 122°21'0 0.2
2018-Jul-16 19:00N 37°46' W 122°21'0 0.1
2018-Jul-16 18:29N 37°46' W 122°21'0 0.2
2018-Jul-16 18:00N 37°46' W 122°21'3 5.8
2018-Jul-16 17:30N 37°48' W 122°18'1 1.2
2018-Jul-16 17:00N 37°47' W 122°17'1 1.1
2018-Jul-16 16:30N 37°48' W 122°18'3 5.5
2018-Jul-16 16:00N 37°46' W 122°21'3 5.8
2018-Jul-16 15:29N 37°43' W 122°21'5 9.7
2018-Jul-16 15:00N 37°48' W 122°21'3 6.7
2018-Jul-16 14:30N 37°47' W 122°17'0 0.0
2018-Jul-16 04:40N 37°47' W 122°17'1 7.4
2018-Jul-16 04:30N 37°48' W 122°19'3 6.8
2018-Jul-16 04:00N 37°47' W 122°23'4 8.9
2018-Jul-16 03:30N 37°48' W 122°18'0 0.2
2018-Jul-16 02:10N 37°47' W 122°17'1 6.0
2018-Jul-16 02:00N 37°48' W 122°18'3 5.6
2018-Jul-16 01:31N 37°47' W 122°22'1 2.2
2018-Jul-16 01:01N 37°47' W 122°23'5 0.6
2018-Jul-15 17:45N 37°47' W 122°17'2 9.6
2018-Jul-15 17:31N 37°48' W 122°20'2 4.0
2018-Jul-15 17:00N 37°46' W 122°21'1 1.1
2018-Jul-15 16:30N 37°46' W 122°21'3 6.3
2018-Jul-15 16:00N 37°47' W 122°17'2 4.3
2018-Jul-15 15:30N 37°48' W 122°20'3 5.9
2018-Jul-15 15:00N 37°45' W 122°20'3 6.4
2018-Jul-15 14:31N 37°47' W 122°17'0 0.0
2018-Jul-14 23:27N 37°47' W 122°17'3 6.7
2018-Jul-14 23:01N 37°45' W 122°20'1 1.8
2018-Jul-14 22:29N 37°44' W 122°20'0 1.0
2018-Jul-14 22:00N 37°44' W 122°20'4 7.8
2018-Jul-14 21:30N 37°47' W 122°17'0 0.0
2018-Jul-13 19:55N 37°47' W 122°17'0 0.0
2018-Jul-13 18:55N 37°47' W 122°17'2 5.3
2018-Jul-13 18:30N 37°48' W 122°20'3 5.2
2018-Jul-13 18:00N 37°45' W 122°20'3 5.2
2018-Jul-13 17:31N 37°48' W 122°20'2 3.7
2018-Jul-13 16:59N 37°47' W 122°17'0 0.0
2018-Jul-13 16:30N 37°47' W 122°17'3 5.4
2018-Jul-13 16:00N 37°46' W 122°20'3 5.2
2018-Jul-13 15:30N 37°44' W 122°20'0 0.2
2018-Jul-13 15:00N 37°44' W 122°19'4 4.1
2018-Jul-13 14:00N 37°47' W 122°17'0 0.0
2018-Jul-13 13:30N 37°47' W 122°17'0 0.0
2018-Jul-13 03:53N 37°47' W 122°17'4 9.5
2018-Jul-13 03:30N 37°44' W 122°20'3 6.1
2018-Jul-13 03:00N 37°47' W 122°20'2 4.5
2018-Jul-13 02:30N 37°47' W 122°17'3 5.3
2018-Jul-13 02:00N 37°46' W 122°20'3 6.5
2018-Jul-13 01:30N 37°48' W 122°22'4 7.7
2018-Jul-13 01:00N 37°52' W 122°25'2 3.7
2018-Jul-13 00:31N 37°50' W 122°24'510.8
2018-Jul-13 00:01N 37°48' W 122°18'4 7.0
2018-Jul-12 23:30N 37°44' W 122°20'3 5.2
2018-Jul-12 23:00N 37°47' W 122°20'0 0.1
2018-Jul-12 22:30N 37°47' W 122°20'0 0.7
2018-Jul-12 22:01N 37°47' W 122°20'3 5.1
2018-Jul-12 21:30N 37°47' W 122°17'3 6.3
2018-Jul-12 21:00N 37°45' W 122°20'3 5.7
2018-Jul-12 20:30N 37°48' W 122°18'3 5.2
2018-Jul-12 20:00N 37°46' W 122°21'2 3.6
2018-Jul-12 19:31N 37°44' W 122°20'0 0.0
2018-Jul-12 19:01N 37°44' W 122°20'0 0.1
2018-Jul-12 18:24N 37°44' W 122°20'0 1.2
2018-Jul-12 18:00N 37°44' W 122°20'4 7.9
2018-Jul-12 17:30N 37°48' W 122°17'0 0.2
2018-Jul-12 17:00N 37°47' W 122°17'0 0.0
2018-Jul-12 16:30N 37°47' W 122°17'0 0.0
2018-Jul-12 16:00N 37°47' W 122°17'4 7.0
2018-Jul-12 15:30N 37°44' W 122°20'0 1.0
2018-Jul-12 15:00N 37°45' W 122°20'3 6.4
2018-Jul-12 14:31N 37°47' W 122°17'2 0.2
2018-Jul-12 03:45N 37°48' W 122°20'414.9
2018-Jul-12 03:30N 37°44' W 122°20'  
Track history (hours):
 
Tides and Currents Weather Stations Pressure Air Temp Water Temp Dewpoint Dewpoint Depression Visibility Wind Speed Wind Dir Waves Ship Positions

Lana

Owner: MARINE EXPRESS INCORPORATION, ALAMEDA, CA. More information available from US FCC via Universal Licensing System.

Last reported at 2018-Jul-22 03:00 UTC. Time now 2018-Jul-22 03:09 UTC.
Position N 37°43' W 122°20'.

Length 19 m.

Type: Passenger vessel. MMSI: 338108125.

Date/timePositionNaut miles runAvg speedWind from/ knotsBaromVisibWave heightAir tempDewpointWater temp
2018-Jul-22 03:00N 37°43' W 122°20'4 8.8
2018-Jul-22 02:31N 37°48' W 122°19'2 3.5
2018-Jul-22 02:00N 37°47' W 122°17'0 0.0
2018-Jul-21 22:26N 37°47' W 122°17'3 6.7
2018-Jul-21 22:00N 37°46' W 122°20'3 6.3
2018-Jul-21 21:30N 37°42' W 122°20'0 0.2
2018-Jul-21 20:33N 37°43' W 122°20'0 8.3
2018-Jul-21 20:30N 37°43' W 122°20'5 9.6
2018-Jul-21 20:00N 37°48' W 122°19'2 3.4
2018-Jul-21 19:30N 37°47' W 122°17'0 0.0
2018-Jul-21 19:00N 37°47' W 122°17'0 0.3
2018-Jul-21 18:30N 37°48' W 122°17'3 5.9
2018-Jul-21 18:00N 37°47' W 122°21'3 6.3
2018-Jul-21 17:30N 37°47' W 122°17'1 1.9
2018-Jul-21 17:00N 37°48' W 122°18'2 4.9
2018-Jul-21 16:30N 37°47' W 122°22'0 0.2
2018-Jul-21 16:00N 37°47' W 122°21'3 6.6
2018-Jul-21 15:30N 37°47' W 122°17'0 0.0
2018-Jul-21 03:11N 37°47' W 122°17'2 9.3
2018-Jul-21 03:00N 37°48' W 122°19'5 9.3
2018-Jul-21 02:30N 37°43' W 122°20'0 0.0
2018-Jul-21 02:00N 37°43' W 122°20'0 0.1
2018-Jul-21 01:30N 37°43' W 122°20'5 9.2
2018-Jul-21 01:00N 37°48' W 122°20'2 4.6
2018-Jul-21 00:30N 37°47' W 122°17'0 0.0
2018-Jul-21 00:00N 37°47' W 122°17'2 3.3
2018-Jul-20 23:30N 37°48' W 122°19'1 2.2
2018-Jul-20 23:01N 37°47' W 122°20'3 5.0
2018-Jul-20 22:30N 37°47' W 122°17'1 2.5
2018-Jul-20 22:00N 37°48' W 122°19'4 8.2
2018-Jul-20 21:30N 37°44' W 122°20'0 0.1
2018-Jul-20 21:00N 37°44' W 122°20'0 0.2
2018-Jul-20 20:30N 37°44' W 122°20'4 7.6
2018-Jul-20 20:00N 37°47' W 122°20'2 4.7
2018-Jul-20 19:30N 37°47' W 122°17'0 0.0
2018-Jul-20 19:00N 37°47' W 122°17'0 0.0
2018-Jul-20 18:30N 37°47' W 122°17'0 0.1
2018-Jul-20 18:00N 37°47' W 122°17'1 2.0
2018-Jul-20 17:30N 37°48' W 122°19'1 1.6
2018-Jul-20 17:00N 37°48' W 122°20'613.0
2018-Jul-20 16:31N 37°53' W 122°25'1 1.8
2018-Jul-20 16:00N 37°54' W 122°25'815.9
2018-Jul-20 15:30N 37°48' W 122°18'1 0.1
2018-Jul-20 05:30N 37°47' W 122°17'3 5.5
2018-Jul-20 05:01N 37°46' W 122°20'3 1.0
2018-Jul-20 02:20N 37°47' W 122°17'2 7.0
2018-Jul-20 02:01N 37°47' W 122°20'0 0.9
2018-Jul-20 01:31N 37°47' W 122°20'2 4.5
2018-Jul-20 01:00N 37°47' W 122°17'0 0.0
2018-Jul-19 15:34N 37°47' W 122°17'0 0.2
2018-Jul-19 15:30N 37°47' W 122°17'0 0.1
2018-Jul-19 15:00N 37°47' W 122°17'0 0.0
2018-Jul-19 14:30N 37°47' W 122°17'0 0.0
2018-Jul-18 03:36N 37°48' W 122°18'112.4
2018-Jul-18 03:31N 37°48' W 122°19'1 1.4
2018-Jul-18 03:01N 37°48' W 122°19'1 0.6
2018-Jul-18 01:14N 37°47' W 122°17'1 5.2
2018-Jul-18 01:00N 37°48' W 122°19'0 0.6
2018-Jul-18 00:30N 37°48' W 122°19'2 2.0
2018-Jul-17 23:45N 37°47' W 122°17'2 8.5
2018-Jul-17 23:30N 37°48' W 122°20'0 0.3
2018-Jul-17 23:00N 37°48' W 122°20'2 1.4
2018-Jul-17 21:38N 37°47' W 122°17'0 2.9
2018-Jul-17 21:31N 37°48' W 122°18'3 6.7
2018-Jul-17 21:00N 37°45' W 122°20'4 7.0
2018-Jul-17 20:30N 37°47' W 122°17'0 0.0
2018-Jul-17 20:00N 37°47' W 122°17'3 6.2
2018-Jul-17 19:29N 37°46' W 122°21'0 0.0
2018-Jul-17 19:00N 37°46' W 122°21'0 0.2
2018-Jul-17 18:29N 37°46' W 122°21'3 6.6
2018-Jul-17 18:00N 37°47' W 122°17'2 4.8
2018-Jul-17 17:30N 37°48' W 122°20'1 2.6
2018-Jul-17 17:00N 37°46' W 122°21'0 0.2
2018-Jul-17 16:30N 37°46' W 122°21'0 0.1
2018-Jul-17 16:00N 37°46' W 122°21'0 0.0
2018-Jul-17 15:30N 37°46' W 122°21'0 0.0
2018-Jul-17 15:00N 37°46' W 122°21'2 3.3
2018-Jul-17 14:30N 37°47' W 122°23'5 9.4
2018-Jul-17 14:00N 37°47' W 122°17'0 0.0
2018-Jul-17 13:30N 37°47' W 122°17'0 0.0
2018-Jul-17 04:35N 37°47' W 122°17'0 2.5
2018-Jul-17 04:30N 37°48' W 122°18'4 8.1
2018-Jul-17 04:00N 37°47' W 122°23'0 0.9
2018-Jul-17 03:30N 37°47' W 122°23'0 0.0
2018-Jul-17 03:00N 37°47' W 122°23'0 0.1
2018-Jul-17 02:30N 37°47' W 122°23'4 8.0
2018-Jul-17 02:00N 37°48' W 122°18'3 5.3
2018-Jul-17 01:30N 37°46' W 122°21'2 3.6
2018-Jul-17 01:00N 37°47' W 122°23'4 7.4
2018-Jul-17 00:30N 37°48' W 122°19'1 0.3
2018-Jul-16 21:27N 37°47' W 122°17'0 0.0
2018-Jul-16 21:00N 37°47' W 122°17'3 6.4
2018-Jul-16 20:30N 37°46' W 122°21'0 0.3
2018-Jul-16 20:00N 37°46' W 122°21'0 0.3
2018-Jul-16 19:30N 37°46' W 122°21'0 0.2
2018-Jul-16 19:00N 37°46' W 122°21'0 0.1
2018-Jul-16 18:29N 37°46' W 122°21'0 0.2
2018-Jul-16 18:00N 37°46' W 122°21'3 5.8
2018-Jul-16 17:30N 37°48' W 122°18'1 1.2
2018-Jul-16 17:00N 37°47' W 122°17'1 1.1
2018-Jul-16 16:30N 37°48' W 122°18'3 5.5
2018-Jul-16 16:00N 37°46' W 122°21'3 5.8
2018-Jul-16 15:29N 37°43' W 122°21'5 9.7
2018-Jul-16 15:00N 37°48' W 122°21'3 6.7
2018-Jul-16 14:30N 37°47' W 122°17'0 0.0
2018-Jul-16 04:40N 37°47' W 122°17'1 7.4
2018-Jul-16 04:30N 37°48' W 122°19'3 6.8
2018-Jul-16 04:00N 37°47' W 122°23'4 8.9
2018-Jul-16 03:30N 37°48' W 122°18'0 0.2
2018-Jul-16 02:10N 37°47' W 122°17'1 6.0
2018-Jul-16 02:00N 37°48' W 122°18'3 5.6
2018-Jul-16 01:31N 37°47' W 122°22'1 2.2
2018-Jul-16 01:01N 37°47' W 122°23'5 0.6
2018-Jul-15 17:45N 37°47' W 122°17'2 9.6
2018-Jul-15 17:31N 37°48' W 122°20'2 4.0
2018-Jul-15 17:00N 37°46' W 122°21'1 1.1
2018-Jul-15 16:30N 37°46' W 122°21'3 6.3
2018-Jul-15 16:00N 37°47' W 122°17'2 4.3
2018-Jul-15 15:30N 37°48' W 122°20'3 5.9
2018-Jul-15 15:00N 37°45' W 122°20'3 6.4
2018-Jul-15 14:31N 37°47' W 122°17'0 0.0
2018-Jul-14 23:27N 37°47' W 122°17'3 6.7
2018-Jul-14 23:01N 37°45' W 122°20'1 1.8
2018-Jul-14 22:29N 37°44' W 122°20'0 1.0
2018-Jul-14 22:00N 37°44' W 122°20'4 7.8
2018-Jul-14 21:30N 37°47' W 122°17'0 0.0
2018-Jul-13 19:55N 37°47' W 122°17'0 0.0
2018-Jul-13 18:55N 37°47' W 122°17'2 5.3
2018-Jul-13 18:30N 37°48' W 122°20'3 5.2
2018-Jul-13 18:00N 37°45' W 122°20'3 5.2
2018-Jul-13 17:31N 37°48' W 122°20'2 3.7
2018-Jul-13 16:59N 37°47' W 122°17'0 0.0
2018-Jul-13 16:30N 37°47' W 122°17'3 5.4
2018-Jul-13 16:00N 37°46' W 122°20'3 5.2
2018-Jul-13 15:30N 37°44' W 122°20'0 0.2
2018-Jul-13 15:00N 37°44' W 122°19'4 4.1
2018-Jul-13 14:00N 37°47' W 122°17'0 0.0
2018-Jul-13 13:30N 37°47' W 122°17'0 0.0
2018-Jul-13 03:53N 37°47' W 122°17'4 9.5
2018-Jul-13 03:30N 37°44' W 122°20'3 6.1
2018-Jul-13 03:00N 37°47' W 122°20'2 4.5
2018-Jul-13 02:30N 37°47' W 122°17'3 5.3
2018-Jul-13 02:00N 37°46' W 122°20'3 6.5
2018-Jul-13 01:30N 37°48' W 122°22'4 7.7
2018-Jul-13 01:00N 37°52' W 122°25'2 3.7
2018-Jul-13 00:31N 37°50' W 122°24'510.8
2018-Jul-13 00:01N 37°48' W 122°18'4 7.0
2018-Jul-12 23:30N 37°44' W 122°20'3 5.2
2018-Jul-12 23:00N 37°47' W 122°20'0 0.1
2018-Jul-12 22:30N 37°47' W 122°20'0 0.7
2018-Jul-12 22:01N 37°47' W 122°20'3 5.1
2018-Jul-12 21:30N 37°47' W 122°17'3 6.3
2018-Jul-12 21:00N 37°45' W 122°20'3 5.7
2018-Jul-12 20:30N 37°48' W 122°18'3 5.2
2018-Jul-12 20:00N 37°46' W 122°21'2 3.6
2018-Jul-12 19:31N 37°44' W 122°20'0 0.0
2018-Jul-12 19:01N 37°44' W 122°20'0 0.1
2018-Jul-12 18:24N 37°44' W 122°20'0 1.2
2018-Jul-12 18:00N 37°44' W 122°20'4 7.9
2018-Jul-12 17:30N 37°48' W 122°17'0 0.2
2018-Jul-12 17:00N 37°47' W 122°17'0 0.0
2018-Jul-12 16:30N 37°47' W 122°17'0 0.0
2018-Jul-12 16:00N 37°47' W 122°17'4 7.0
2018-Jul-12 15:30N 37°44' W 122°20'0 1.0
2018-Jul-12 15:00N 37°45' W 122°20'3 6.4
2018-Jul-12 14:31N 37°47' W 122°17'2 0.2
2018-Jul-12 03:45N 37°48' W 122°20'414.9
2018-Jul-12 03:30N 37°44' W 122°20'  

Dump ship's entire track history